Impacts METAR Board INFO
IDs:

KORD - Chicago/O'Hare Intl, IL, US

Updated at: 0012 UTC 24 Feb 2018
Potential Impact None Slight Moderate High
Time23/12Z 23/13Z 23/14Z 23/15Z 23/16Z 23/17Z 23/18Z 23/19Z 23/20Z 23/21Z 23/22Z 23/23Z 24/00Z
VIS5 4 5 2.5 9 10 10 10 10 10 10 10 10
CIG5 5 5 5 8 8 7 11 10 10 12 16 18
CoverOVCOVCOVCOVCOVCOVCOVCOVCOVCOVCOVCOVCOVC
FltCatIFRIFRIFRIFRIFRIFRIFRMVFRMVFRMVFRMVFRMVFRMVFR
WX-DZ BR-DZ BRBR-DZ BR------------------
WDir200200210240270280270270260240270280280
WSpd6 6 9 10 12 12 14 14 9 11 11 8 6
WGst-- -- -- -- 20 20 20 21 -- -- -- -- --
Raw hourly METARs
KORD 231151Z 20006KT 5SM -DZ BR OVC005 04/03 A3009 RMK AO2 RAE22DZB32 SLP195 P0001 60005 70005 T00440033 10044 20039 56021
KORD 231251Z 20006KT 4SM -DZ BR OVC005 05/04 A3008 RMK AO2 SLP191 P0001 T00500039
KORD 231351Z 21009KT 5SM BR OVC005 06/04 A3007 RMK AO2 DZE14 SLP188 P0000 T00560044
KORD 231451Z 24010KT 2 1/2SM -DZ BR OVC005 06/05 A3009 RMK AO2 DZB22 SLP193 P0000 60001 T00610050 53003
KORD 231551Z 27012G20KT 9SM OVC008 06/04 A3011 RMK AO2 DZE14 CIG 007V012 SLP201 P0000 T00610044
KORD 231651Z 28012G20KT 10SM OVC008 05/03 A3015 RMK AO2 SLP215 T00500028
KORD 231751Z 27014G20KT 10SM OVC007 04/02 A3015 RMK AO2 CIG 007V012 SLP216 60001 T00440022 10067 20044 51022
KORD 231851Z 27014G21KT 10SM OVC011 04/02 A3017 RMK AO2 SLP220 T00440017
KORD 231951Z 26009KT 10SM OVC010 04/02 A3017 RMK AO2 SLP221 CIG 009V012 T00390017
KORD 232051Z 24011KT 10SM OVC010 04/02 A3020 RMK AO2 SLP233 T00390017 53016
KORD 232151Z 27011KT 10SM OVC012 03/01 A3021 RMK AO2 SLP235 T00330006
KORD 232251Z 28008KT 10SM OVC016 04/01 A3022 RMK AO2 SLP238 T00390006
KORD 232351Z 28006KT 10SM OVC018 04/M01 A3023 RMK AO2 SLP241 T00391006 10044 20033 53006